createdAt,value
2019-05-06T00:00:16.909Z,0.00
2019-05-06T00:01:16.929Z,0.00
2019-05-06T00:02:16.954Z,0.00
2019-05-06T00:03:16.979Z,0.00
2019-05-06T00:04:17.007Z,0.00
2019-05-06T00:05:17.025Z,0.00
2019-05-06T00:06:17.050Z,0.00
2019-05-06T00:07:17.074Z,0.00
2019-05-06T00:08:17.097Z,0.00
2019-05-06T00:09:17.123Z,0.00
2019-05-06T00:10:17.146Z,0.00
2019-05-06T00:11:17.169Z,0.00
2019-05-06T00:12:17.197Z,0.00
2019-05-06T00:13:17.218Z,0.00
2019-05-06T00:14:17.244Z,0.00
2019-05-06T00:15:17.264Z,0.00
2019-05-06T00:16:17.293Z,0.00
2019-05-06T00:17:17.313Z,0.00
2019-05-06T00:18:17.339Z,0.00
2019-05-06T00:19:17.362Z,0.00
2019-05-06T00:20:17.387Z,0.00
2019-05-06T00:21:17.411Z,0.00
2019-05-06T00:22:17.437Z,0.00
2019-05-06T00:23:17.461Z,0.00
2019-05-06T00:24:17.481Z,0.00
2019-05-06T00:25:17.508Z,0.00
2019-05-06T00:26:17.533Z,0.00
2019-05-06T00:27:17.558Z,0.00
2019-05-06T00:28:17.577Z,0.00
2019-05-06T00:29:17.606Z,0.00
2019-05-06T00:30:17.626Z,0.00
2019-05-06T00:31:17.648Z,0.00
2019-05-06T00:32:17.675Z,0.00
2019-05-06T00:33:17.699Z,0.00
2019-05-06T00:34:17.724Z,0.00
2019-05-06T00:35:17.745Z,0.00
2019-05-06T00:36:17.774Z,0.00
2019-05-06T00:37:17.793Z,0.00
2019-05-06T00:38:17.820Z,0.00
2019-05-06T00:39:17.865Z,0.00
2019-05-06T00:40:17.865Z,0.00
2019-05-06T00:41:17.890Z,0.00
2019-05-06T00:42:17.913Z,0.00
2019-05-06T00:43:17.939Z,0.00
2019-05-06T00:44:17.963Z,0.00
2019-05-06T00:45:17.985Z,0.00
2019-05-06T00:46:18.010Z,0.00
2019-05-06T00:47:18.035Z,0.00
2019-05-06T00:48:18.056Z,0.00
2019-05-06T00:49:18.082Z,0.00
2019-05-06T00:50:18.108Z,0.00
2019-05-06T00:51:18.129Z,0.00
2019-05-06T00:52:18.154Z,0.00
2019-05-06T00:53:18.177Z,0.00
2019-05-06T00:54:18.201Z,0.00
2019-05-06T00:55:18.227Z,0.00
2019-05-06T00:56:18.250Z,0.00
2019-05-06T00:57:18.277Z,0.00
2019-05-06T00:58:18.300Z,0.00
2019-05-06T00:59:18.323Z,0.00
2019-05-06T01:00:18.384Z,0.00
2019-05-06T01:01:26.994Z,0.00
2019-05-06T01:02:18.397Z,0.00
2019-05-06T01:03:18.421Z,0.00
2019-05-06T01:04:18.444Z,0.00
2019-05-06T01:05:18.467Z,0.00
2019-05-06T01:06:18.491Z,0.00
2019-05-06T01:07:18.515Z,0.00
2019-05-06T01:08:18.539Z,0.00
2019-05-06T01:09:18.565Z,0.00
2019-05-06T01:10:18.588Z,0.00
2019-05-06T01:11:18.612Z,0.00
2019-05-06T01:12:18.635Z,0.00
2019-05-06T01:13:18.665Z,0.00
2019-05-06T01:14:18.687Z,0.00
2019-05-06T01:15:18.709Z,0.00
2019-05-06T01:16:18.739Z,0.00
2019-05-06T01:17:18.758Z,0.00
2019-05-06T01:18:18.784Z,0.00
2019-05-06T01:19:18.807Z,0.00
2019-05-06T01:20:18.859Z,0.00
2019-05-06T01:21:18.855Z,0.00
2019-05-06T01:22:18.882Z,0.00
2019-05-06T01:23:18.905Z,0.00
2019-05-06T01:24:18.929Z,0.00
2019-05-06T01:25:18.954Z,0.00
2019-05-06T01:26:18.981Z,0.00
2019-05-06T01:27:19.002Z,0.00
2019-05-06T01:28:19.025Z,0.00
2019-05-06T01:29:19.054Z,0.00
2019-05-06T01:30:19.076Z,0.00
2019-05-06T01:31:19.103Z,0.00
2019-05-06T01:32:19.126Z,0.00
2019-05-06T01:33:19.154Z,0.00
2019-05-06T01:34:19.178Z,0.00
2019-05-06T01:35:19.201Z,0.00
2019-05-06T01:36:19.224Z,0.00
2019-05-06T01:37:19.250Z,0.00
2019-05-06T01:38:19.285Z,0.00
2019-05-06T01:39:19.301Z,0.00
2019-05-06T01:40:19.323Z,0.00
2019-05-06T01:41:19.349Z,0.00
2019-05-06T01:42:19.378Z,0.00
2019-05-06T01:43:19.402Z,0.00
2019-05-06T01:44:19.426Z,0.00
2019-05-06T01:45:19.448Z,0.00
2019-05-06T01:46:19.473Z,0.00
2019-05-06T01:47:19.500Z,0.00
2019-05-06T01:48:19.523Z,0.00
2019-05-06T01:49:19.555Z,0.00
2019-05-06T01:50:19.576Z,0.00
2019-05-06T01:51:19.597Z,0.00
2019-05-06T01:52:19.620Z,0.00
2019-05-06T01:53:19.647Z,0.00
2019-05-06T01:54:19.672Z,0.00
2019-05-06T01:55:19.695Z,0.00
2019-05-06T01:56:19.719Z,0.00
2019-05-06T01:57:19.747Z,0.00
2019-05-06T01:58:19.770Z,0.00
2019-05-06T01:59:19.795Z,0.00
2019-05-06T02:00:19.819Z,0.00
2019-05-06T02:01:19.844Z,0.00
2019-05-06T02:02:19.871Z,0.00
2019-05-06T02:03:19.894Z,0.00
2019-05-06T02:04:19.916Z,0.00
2019-05-06T02:05:19.941Z,0.00
2019-05-06T02:06:19.967Z,0.00
2019-05-06T02:07:19.990Z,0.00
2019-05-06T02:08:20.017Z,0.00
2019-05-06T02:09:20.043Z,0.00
2019-05-06T02:10:20.067Z,0.00
2019-05-06T02:11:20.099Z,0.00
2019-05-06T02:12:20.114Z,0.00
2019-05-06T02:13:20.138Z,0.00
2019-05-06T02:14:20.168Z,0.00
2019-05-06T02:15:20.191Z,5.63
2019-05-06T02:16:20.212Z,5.63
2019-05-06T02:17:20.237Z,5.63
2019-05-06T02:18:20.263Z,5.63
2019-05-06T02:19:20.291Z,5.63
2019-05-06T02:20:20.317Z,5.63
2019-05-06T02:21:20.339Z,5.63
2019-05-06T02:22:20.362Z,5.63
2019-05-06T02:23:20.386Z,5.63
2019-05-06T02:24:20.410Z,11.25
2019-05-06T02:25:20.441Z,11.25
2019-05-06T02:26:20.461Z,11.25
2019-05-06T02:27:20.489Z,11.25
2019-05-06T02:28:20.518Z,11.25
2019-05-06T02:29:20.535Z,11.25
2019-05-06T02:30:20.560Z,11.25
2019-05-06T02:31:20.585Z,16.88
2019-05-06T02:32:26.097Z,16.88
2019-05-06T02:33:20.638Z,16.88
2019-05-06T02:34:20.662Z,16.88
2019-05-06T02:35:20.685Z,16.88
2019-05-06T02:36:20.726Z,22.50
2019-05-06T02:37:20.735Z,22.50
2019-05-06T02:38:23.362Z,22.50
2019-05-06T02:39:23.370Z,22.50
2019-05-06T02:40:24.171Z,28.13
2019-05-06T02:41:23.304Z,28.13
2019-05-06T02:42:23.656Z,28.13
2019-05-06T02:43:23.118Z,33.75
2019-05-06T02:44:23.805Z,33.75
2019-05-06T02:45:23.574Z,33.75
2019-05-06T02:46:23.537Z,39.38
2019-05-06T02:47:23.068Z,39.38
2019-05-06T02:48:22.944Z,39.38
2019-05-06T02:49:23.642Z,45.00
2019-05-06T02:50:23.793Z,45.00
2019-05-06T02:51:24.187Z,45.00
2019-05-06T02:52:22.854Z,50.63
2019-05-06T02:53:23.545Z,50.63
2019-05-06T02:54:23.539Z,50.63
2019-05-06T02:55:23.583Z,50.63
2019-05-06T02:56:23.805Z,61.88
2019-05-06T02:57:23.805Z,56.25
2019-05-06T02:58:23.773Z,56.25
2019-05-06T02:59:24.106Z,61.88
2019-05-06T03:00:23.898Z,67.50
2019-05-06T03:01:23.255Z,67.50
2019-05-06T03:02:37.927Z,67.50
2019-05-06T03:03:23.232Z,67.50
2019-05-06T03:04:23.642Z,73.13
2019-05-06T03:05:23.698Z,73.13
2019-05-06T03:06:23.683Z,78.75
2019-05-06T03:07:23.363Z,78.75
2019-05-06T03:08:23.694Z,78.75
2019-05-06T03:09:23.337Z,84.38
2019-05-06T03:10:24.744Z,84.38
2019-05-06T03:11:24.035Z,84.38
2019-05-06T03:12:22.848Z,95.63
2019-05-06T03:13:23.636Z,95.63
2019-05-06T03:14:23.475Z,101.25
2019-05-06T03:15:24.027Z,101.25
2019-05-06T03:16:23.733Z,106.88
2019-05-06T03:17:23.527Z,123.75
2019-05-06T03:18:23.597Z,151.88
2019-05-06T03:19:23.996Z,157.50
2019-05-06T03:20:23.659Z,146.25
2019-05-06T03:21:24.744Z,140.63
2019-05-06T03:22:24.042Z,123.75
2019-05-06T03:23:23.623Z,123.75
2019-05-06T03:24:23.620Z,112.50
2019-05-06T03:25:24.019Z,118.13
2019-05-06T03:26:23.605Z,123.75
2019-05-06T03:27:23.506Z,123.75
2019-05-06T03:28:22.633Z,129.38
2019-05-06T03:29:25.032Z,146.25
2019-05-06T03:30:25.654Z,163.13
2019-05-06T03:31:26.144Z,174.38
2019-05-06T03:32:29.934Z,151.88
2019-05-06T03:33:44.549Z,140.63
2019-05-06T03:34:49.236Z,151.88
2019-05-06T03:35:40.606Z,146.25
2019-05-06T03:36:27.310Z,146.25
2019-05-06T03:37:23.826Z,146.25
2019-05-06T03:38:22.976Z,140.63
2019-05-06T03:39:23.269Z,151.88
2019-05-06T03:40:23.122Z,146.25
2019-05-06T03:41:23.386Z,146.25
2019-05-06T03:42:23.114Z,151.88
2019-05-06T03:43:23.321Z,157.50
2019-05-06T03:44:23.969Z,163.13
2019-05-06T03:45:23.680Z,168.75
2019-05-06T03:46:23.327Z,163.13
2019-05-06T03:47:23.477Z,168.75
2019-05-06T03:48:23.957Z,191.25
2019-05-06T03:49:23.852Z,241.88
2019-05-06T03:50:23.969Z,230.63
2019-05-06T03:51:23.340Z,202.50
2019-05-06T03:52:23.461Z,191.25
2019-05-06T03:53:23.343Z,185.63
2019-05-06T03:54:23.276Z,191.25
2019-05-06T03:55:23.444Z,191.25
2019-05-06T03:56:23.887Z,258.75
2019-05-06T03:57:23.359Z,286.88
2019-05-06T03:58:23.580Z,241.88
2019-05-06T03:59:23.405Z,208.13
2019-05-06T04:00:23.728Z,208.13
2019-05-06T04:01:24.024Z,225.00
2019-05-06T04:02:24.117Z,213.75
2019-05-06T04:03:41.328Z,196.88
2019-05-06T04:04:23.424Z,196.88
2019-05-06T04:05:24.012Z,196.88
2019-05-06T04:06:24.185Z,196.88
2019-05-06T04:07:23.576Z,196.88
2019-05-06T04:08:24.094Z,225.00
2019-05-06T04:09:23.980Z,236.25
2019-05-06T04:10:23.220Z,247.50
2019-05-06T04:11:23.183Z,264.38
2019-05-06T04:12:23.594Z,258.75
2019-05-06T04:13:23.356Z,230.63
2019-05-06T04:14:23.869Z,225.00
2019-05-06T04:15:26.861Z,258.75
2019-05-06T04:16:23.330Z,309.38
2019-05-06T04:17:23.920Z,275.63
2019-05-06T04:18:24.019Z,241.88
2019-05-06T04:19:23.898Z,236.25
2019-05-06T04:20:23.759Z,236.25
2019-05-06T04:21:24.176Z,236.25
2019-05-06T04:22:23.796Z,241.88
2019-05-06T04:23:23.628Z,241.88
2019-05-06T04:24:23.543Z,270.00
2019-05-06T04:25:23.571Z,326.25
2019-05-06T04:26:24.082Z,253.13
2019-05-06T04:27:23.628Z,270.00
2019-05-06T04:28:23.973Z,241.88
2019-05-06T04:29:24.132Z,241.88
2019-05-06T04:30:24.481Z,264.38
2019-05-06T04:31:23.744Z,247.50
2019-05-06T04:32:23.771Z,264.38
2019-05-06T04:33:23.913Z,253.13
2019-05-06T04:34:23.850Z,264.38
2019-05-06T04:35:23.876Z,253.13
2019-05-06T04:36:24.021Z,281.25
2019-05-06T04:37:24.293Z,348.75
2019-05-06T04:38:24.051Z,348.75
2019-05-06T04:39:23.972Z,427.50
2019-05-06T04:40:24.190Z,438.75
2019-05-06T04:41:26.791Z,765.00
2019-05-06T04:42:26.877Z,798.75
2019-05-06T04:43:26.787Z,793.13
2019-05-06T04:44:24.184Z,731.25
2019-05-06T04:45:24.171Z,815.63
2019-05-06T04:46:24.177Z,877.50
2019-05-06T04:47:24.439Z,883.13
2019-05-06T04:48:24.275Z,855.00
2019-05-06T04:49:24.267Z,849.38
2019-05-06T04:50:24.552Z,849.38
2019-05-06T04:51:24.894Z,849.38
2019-05-06T04:52:26.036Z,877.50
2019-05-06T04:53:27.106Z,871.88
2019-05-06T04:54:26.638Z,871.88
2019-05-06T04:55:24.451Z,883.13
2019-05-06T04:56:24.483Z,894.38
2019-05-06T04:57:24.526Z,916.88
2019-05-06T04:58:24.548Z,866.25
2019-05-06T04:59:24.583Z,821.25
2019-05-06T05:00:24.615Z,871.88
2019-05-06T05:01:24.645Z,900.00
2019-05-06T05:02:24.678Z,922.50
2019-05-06T05:03:24.713Z,933.75
2019-05-06T05:04:32.059Z,933.75
2019-05-06T05:05:24.782Z,928.13
2019-05-06T05:06:24.818Z,933.75
2019-05-06T05:07:24.849Z,939.38
2019-05-06T05:08:24.882Z,961.88
2019-05-06T05:09:24.922Z,978.75
2019-05-06T05:10:24.957Z,939.38
2019-05-06T05:11:24.987Z,939.38
2019-05-06T05:12:25.021Z,945.00
2019-05-06T05:13:25.055Z,967.50
2019-05-06T05:14:26.058Z,995.63
2019-05-06T05:15:25.127Z,1035.00
2019-05-06T05:16:25.162Z,1085.63
2019-05-06T05:17:25.198Z,1051.88
2019-05-06T05:18:25.232Z,995.63
2019-05-06T05:19:25.269Z,1029.38
2019-05-06T05:20:37.102Z,1035.00
2019-05-06T05:21:25.341Z,1040.63
2019-05-06T05:22:25.376Z,1029.38
2019-05-06T05:23:25.413Z,1040.63
2019-05-06T05:24:25.450Z,1085.63
2019-05-06T05:25:25.487Z,1085.63
2019-05-06T05:26:25.525Z,1046.25
2019-05-06T05:27:25.558Z,1035.00
2019-05-06T05:28:25.597Z,1063.13
2019-05-06T05:29:25.635Z,1068.75
2019-05-06T05:30:25.677Z,1113.75
2019-05-06T05:31:25.708Z,1130.63
2019-05-06T05:32:26.961Z,1130.63
2019-05-06T05:33:25.785Z,1153.13
2019-05-06T05:34:37.227Z,1170.00
2019-05-06T05:35:25.860Z,1119.38
2019-05-06T05:36:25.892Z,1085.63
2019-05-06T05:37:25.933Z,1113.75
2019-05-06T05:38:25.970Z,1153.13
2019-05-06T05:39:26.012Z,1175.63
2019-05-06T05:40:26.044Z,1186.88
2019-05-06T05:41:26.086Z,1158.75
2019-05-06T05:42:26.121Z,1147.50
2019-05-06T05:43:26.159Z,1209.38
2019-05-06T05:44:26.197Z,1260.00
2019-05-06T05:45:26.237Z,1248.75
2019-05-06T05:46:26.274Z,1231.88
2019-05-06T05:47:26.312Z,1198.13
2019-05-06T05:48:26.349Z,1181.25
2019-05-06T05:49:26.389Z,1237.50
2019-05-06T05:50:26.429Z,1276.88
2019-05-06T05:51:26.466Z,1276.88
2019-05-06T05:52:26.504Z,1260.00
2019-05-06T05:53:26.545Z,1198.13
2019-05-06T05:54:26.582Z,1164.38
2019-05-06T05:55:26.629Z,1181.25
2019-05-06T05:56:26.670Z,1254.38
2019-05-06T05:57:26.699Z,1288.13
2019-05-06T05:58:26.739Z,1327.50
2019-05-06T05:59:26.778Z,1321.88
2019-05-06T06:00:26.815Z,1276.88
2019-05-06T06:01:26.857Z,1282.50
2019-05-06T06:02:26.895Z,1282.50
2019-05-06T06:03:26.933Z,1338.75
2019-05-06T06:04:26.976Z,1333.13
2019-05-06T06:05:27.021Z,1175.63
2019-05-06T06:06:27.053Z,1113.75
2019-05-06T06:07:27.092Z,1186.88
2019-05-06T06:08:27.132Z,1226.25
2019-05-06T06:09:27.172Z,1080.00
2019-05-06T06:10:27.225Z,984.38
2019-05-06T06:11:27.246Z,1158.75
2019-05-06T06:12:27.316Z,1310.63
2019-05-06T06:13:27.325Z,1428.75
2019-05-06T06:14:27.364Z,1473.75
2019-05-06T06:15:27.407Z,1423.13
2019-05-06T06:16:27.447Z,1395.00
2019-05-06T06:17:27.483Z,1383.75
2019-05-06T06:18:27.527Z,1355.63
2019-05-06T06:19:27.567Z,1451.25
2019-05-06T06:20:27.602Z,1473.75
2019-05-06T06:21:28.312Z,1327.50
2019-05-06T06:22:27.686Z,1366.88
2019-05-06T06:23:27.728Z,1490.63
2019-05-06T06:24:27.766Z,1462.50
2019-05-06T06:25:27.817Z,1485.00
2019-05-06T06:26:27.846Z,1462.50
2019-05-06T06:27:27.886Z,1406.25
2019-05-06T06:28:27.926Z,1411.88
2019-05-06T06:29:27.969Z,1479.38
2019-05-06T06:30:28.013Z,1507.50
2019-05-06T06:31:28.049Z,1468.13
2019-05-06T06:32:28.093Z,1507.50
2019-05-06T06:33:28.134Z,1490.63
2019-05-06T06:34:28.183Z,1518.75
2019-05-06T06:35:28.215Z,1496.25
2019-05-06T06:36:28.254Z,1558.13
2019-05-06T06:37:28.298Z,1563.75
2019-05-06T06:38:28.336Z,1524.38
2019-05-06T06:39:28.388Z,1473.75
2019-05-06T06:40:28.421Z,1473.75
2019-05-06T06:41:28.463Z,1513.13
2019-05-06T06:42:28.501Z,1575.00
2019-05-06T06:43:28.549Z,1642.50
2019-05-06T06:44:28.584Z,1558.13
2019-05-06T06:45:28.625Z,1507.50
2019-05-06T06:46:28.668Z,1597.50
2019-05-06T06:47:28.711Z,1580.63
2019-05-06T06:48:28.749Z,1434.38
2019-05-06T06:49:28.796Z,1389.38
2019-05-06T06:50:28.833Z,1535.63
2019-05-06T06:51:28.874Z,1614.38
2019-05-06T06:52:28.923Z,1665.00
2019-05-06T06:53:28.958Z,1681.88
2019-05-06T06:54:29.004Z,1704.38
2019-05-06T06:55:29.045Z,1653.75
2019-05-06T06:56:29.084Z,1575.00
2019-05-06T06:57:31.476Z,1681.88
2019-05-06T06:58:29.172Z,1726.88
2019-05-06T06:59:29.210Z,1620.00
2019-05-06T07:00:29.252Z,1631.25
2019-05-06T07:01:29.297Z,1710.00
2019-05-06T07:02:29.341Z,1698.75
2019-05-06T07:03:29.384Z,1755.00
2019-05-06T07:04:29.425Z,1704.38
2019-05-06T07:05:29.472Z,1642.50
2019-05-06T07:06:29.508Z,1687.50
2019-05-06T07:07:43.065Z,1687.50
2019-05-06T07:08:34.905Z,1665.00
2019-05-06T07:09:29.842Z,1710.00
2019-05-06T07:10:29.679Z,1743.75
2019-05-06T07:11:29.726Z,1828.13
2019-05-06T07:12:29.771Z,1777.50
2019-05-06T07:13:29.825Z,1631.25
2019-05-06T07:14:32.312Z,1698.75
2019-05-06T07:15:29.895Z,1833.75
2019-05-06T07:16:29.936Z,1755.00
2019-05-06T07:17:29.980Z,1676.25
2019-05-06T07:18:30.024Z,1580.63
2019-05-06T07:19:30.067Z,1501.88
2019-05-06T07:20:32.392Z,1462.50
2019-05-06T07:21:30.588Z,1501.88
2019-05-06T07:22:30.196Z,1530.00
2019-05-06T07:23:32.540Z,1614.38
2019-05-06T07:24:32.320Z,1755.00
2019-05-06T07:25:30.326Z,1845.00
2019-05-06T07:26:31.777Z,1833.75
2019-05-06T07:27:32.336Z,1783.13
2019-05-06T07:28:32.678Z,1884.38
2019-05-06T07:29:32.638Z,1845.00
2019-05-06T07:30:32.276Z,1839.38
2019-05-06T07:31:32.951Z,1923.75
2019-05-06T07:32:32.494Z,1940.63
2019-05-06T07:33:33.185Z,1957.50
2019-05-06T07:34:32.223Z,1918.13
2019-05-06T07:35:38.457Z,1878.75
2019-05-06T07:36:32.263Z,1968.75
2019-05-06T07:37:32.734Z,1946.25
2019-05-06T07:38:32.534Z,1665.00
2019-05-06T07:39:33.206Z,1974.38
2019-05-06T07:40:32.625Z,2070.00
2019-05-06T07:41:32.836Z,1783.13
2019-05-06T07:42:32.269Z,1850.63
2019-05-06T07:43:31.112Z,1963.13
2019-05-06T07:44:33.282Z,1957.50
2019-05-06T07:45:32.919Z,2115.00
2019-05-06T07:46:33.118Z,2154.38
2019-05-06T07:47:33.147Z,2126.25
2019-05-06T07:48:32.001Z,2238.75
2019-05-06T07:49:32.934Z,2266.88
2019-05-06T07:50:33.213Z,2137.50
2019-05-06T07:51:32.449Z,2171.25
2019-05-06T07:52:32.569Z,2238.75
2019-05-06T07:53:32.143Z,2216.25
2019-05-06T07:54:32.991Z,2244.38
2019-05-06T07:55:32.771Z,2216.25
2019-05-06T07:56:32.266Z,2165.63
2019-05-06T07:57:33.037Z,2070.00
2019-05-06T07:58:32.239Z,2098.13
2019-05-06T07:59:33.408Z,2199.38
2019-05-06T08:00:32.769Z,2311.88
2019-05-06T08:01:33.291Z,2233.13
2019-05-06T08:02:32.145Z,2064.38
2019-05-06T08:03:33.011Z,2115.00
2019-05-06T08:04:32.529Z,2250.00
2019-05-06T08:05:32.557Z,2165.63
2019-05-06T08:06:32.217Z,2154.38
2019-05-06T08:07:33.267Z,2193.75
2019-05-06T08:08:33.603Z,2255.63
2019-05-06T08:09:32.660Z,2182.50
2019-05-06T08:10:33.220Z,2227.50
2019-05-06T08:11:32.922Z,2283.75
2019-05-06T08:12:32.724Z,2250.00
2019-05-06T08:13:32.482Z,2182.50
2019-05-06T08:14:32.972Z,2295.00
2019-05-06T08:15:32.978Z,2525.63
2019-05-06T08:16:32.585Z,2570.63
2019-05-06T08:17:33.195Z,2379.38
2019-05-06T08:18:33.101Z,2368.13
2019-05-06T08:19:33.542Z,2289.38
2019-05-06T08:20:32.767Z,2182.50
2019-05-06T08:21:32.816Z,2070.00
2019-05-06T08:22:33.365Z,2328.75
2019-05-06T08:23:32.907Z,2334.38
2019-05-06T08:24:33.310Z,2255.63
2019-05-06T08:25:33.015Z,2317.50
2019-05-06T08:26:33.039Z,2396.25
2019-05-06T08:27:33.091Z,2441.25
2019-05-06T08:28:40.504Z,720.00
2019-05-06T08:29:33.244Z,2317.50
2019-05-06T08:30:33.293Z,2210.63
2019-05-06T08:31:33.268Z,2250.00
2019-05-06T08:32:33.313Z,2351.25
2019-05-06T08:33:33.357Z,2266.88
2019-05-06T08:34:34.275Z,2143.13
2019-05-06T08:35:33.448Z,2210.63
2019-05-06T08:36:33.490Z,2193.75
2019-05-06T08:37:33.538Z,1248.75
2019-05-06T08:38:33.582Z,2255.63
2019-05-06T08:39:33.626Z,2137.50
2019-05-06T08:40:33.671Z,2058.75
2019-05-06T08:41:33.713Z,1974.38
2019-05-06T08:42:33.758Z,658.13
2019-05-06T08:43:33.803Z,618.75
2019-05-06T08:44:33.847Z,658.13
2019-05-06T08:45:33.891Z,675.00
2019-05-06T08:46:33.942Z,1783.13
2019-05-06T08:47:33.978Z,1811.25
2019-05-06T08:48:34.019Z,888.75
2019-05-06T08:49:34.062Z,973.13
2019-05-06T08:50:34.106Z,1726.88
2019-05-06T08:51:34.151Z,933.75
2019-05-06T08:52:34.189Z,855.00
2019-05-06T08:53:34.232Z,759.38
2019-05-06T08:54:34.275Z,720.00
2019-05-06T08:55:34.313Z,748.13
2019-05-06T08:56:34.358Z,776.25
2019-05-06T08:57:34.415Z,793.13
2019-05-06T08:58:34.437Z,1237.50
2019-05-06T08:59:34.476Z,1473.75
2019-05-06T09:00:34.518Z,1620.00
2019-05-06T09:01:34.556Z,1586.25
2019-05-06T09:02:34.597Z,1749.38
2019-05-06T09:03:34.636Z,2013.75
2019-05-06T09:04:34.676Z,1293.75
2019-05-06T09:05:34.719Z,945.00
2019-05-06T09:06:34.760Z,2030.63
2019-05-06T09:07:34.796Z,1996.88
2019-05-06T09:08:34.855Z,2036.25
2019-05-06T09:09:34.877Z,1164.38
2019-05-06T09:10:34.920Z,669.38
2019-05-06T09:11:34.963Z,646.88
2019-05-06T09:12:35.001Z,613.13
2019-05-06T09:13:35.043Z,585.00
2019-05-06T09:14:35.086Z,528.75
2019-05-06T09:15:35.130Z,483.75
2019-05-06T09:16:35.166Z,478.13
2019-05-06T09:17:35.207Z,556.88
2019-05-06T09:18:35.244Z,579.38
2019-05-06T09:19:35.286Z,646.88
2019-05-06T09:20:35.324Z,2295.00
2019-05-06T09:21:35.366Z,2283.75
2019-05-06T09:22:35.401Z,2261.25
2019-05-06T09:23:35.438Z,2216.25
2019-05-06T09:24:35.475Z,2390.63
2019-05-06T09:25:35.516Z,2373.75
2019-05-06T09:26:35.560Z,2216.25
2019-05-06T09:27:35.595Z,2182.50
2019-05-06T09:28:35.637Z,2255.63
2019-05-06T09:29:35.674Z,2221.88
2019-05-06T09:30:35.716Z,2272.50
2019-05-06T09:31:35.760Z,2379.38
2019-05-06T09:32:36.223Z,2407.50
2019-05-06T09:33:35.840Z,2435.63
2019-05-06T09:34:35.891Z,2525.63
2019-05-06T09:35:35.925Z,2525.63
2019-05-06T09:36:43.814Z,2508.75
2019-05-06T09:37:36.011Z,2441.25
2019-05-06T09:38:36.052Z,2424.38
2019-05-06T09:39:36.099Z,1659.38
2019-05-06T09:40:36.139Z,1766.25
2019-05-06T09:41:36.279Z,894.38
2019-05-06T09:42:36.226Z,669.38
2019-05-06T09:43:36.270Z,652.50
2019-05-06T09:44:36.318Z,973.13
2019-05-06T09:45:36.356Z,804.38
2019-05-06T09:46:36.405Z,1985.63
2019-05-06T09:47:36.439Z,2323.13
2019-05-06T09:48:36.483Z,2548.13
2019-05-06T09:49:36.524Z,2553.75
2019-05-06T09:50:36.577Z,2508.75
2019-05-06T09:51:36.630Z,1518.75
2019-05-06T09:52:36.649Z,2210.63
2019-05-06T09:53:36.692Z,1794.38
2019-05-06T09:54:36.771Z,641.25
2019-05-06T09:55:36.775Z,601.88
2019-05-06T09:56:36.818Z,832.50
2019-05-06T09:57:36.859Z,1338.75
2019-05-06T09:58:36.900Z,635.63
2019-05-06T09:59:36.939Z,658.13
2019-05-06T10:00:36.989Z,2160.00
2019-05-06T10:01:37.020Z,1755.00
2019-05-06T10:02:37.062Z,1636.88
2019-05-06T10:03:37.101Z,1513.13
2019-05-06T10:04:37.142Z,1046.25
2019-05-06T10:05:37.188Z,2345.63
2019-05-06T10:06:37.223Z,2520.00
2019-05-06T10:07:37.262Z,2345.63
2019-05-06T10:08:37.300Z,2261.25
2019-05-06T10:09:37.344Z,2278.13
2019-05-06T10:10:37.381Z,2430.00
2019-05-06T10:11:37.425Z,2430.00
2019-05-06T10:12:37.463Z,2255.63
2019-05-06T10:13:37.510Z,2233.13
2019-05-06T10:14:37.554Z,2373.75
2019-05-06T10:15:37.588Z,2311.88
2019-05-06T10:16:37.630Z,2401.88
2019-05-06T10:17:37.671Z,2441.25
2019-05-06T10:18:37.712Z,2300.63
2019-05-06T10:19:37.756Z,2340.00
2019-05-06T10:20:37.797Z,2351.25
2019-05-06T10:21:37.847Z,2385.00
2019-05-06T10:22:37.886Z,658.13
2019-05-06T10:23:37.933Z,562.50
2019-05-06T10:24:37.968Z,517.50
2019-05-06T10:25:38.010Z,466.88
2019-05-06T10:26:38.054Z,433.13
2019-05-06T10:27:38.097Z,399.38
2019-05-06T10:28:38.136Z,376.88
2019-05-06T10:29:38.181Z,354.38
2019-05-06T10:30:38.216Z,331.88
2019-05-06T10:31:38.256Z,315.00
2019-05-06T10:32:38.297Z,303.75
2019-05-06T10:33:38.338Z,298.13
2019-05-06T10:34:38.377Z,303.75
2019-05-06T10:35:38.412Z,315.00
2019-05-06T10:36:38.448Z,337.50
2019-05-06T10:37:38.489Z,399.38
2019-05-06T10:38:38.527Z,410.63
2019-05-06T10:39:38.562Z,416.25
2019-05-06T10:40:55.118Z,444.38
2019-05-06T10:41:38.634Z,489.38
2019-05-06T10:42:38.673Z,540.00
2019-05-06T10:43:38.718Z,528.75
2019-05-06T10:44:38.743Z,545.63
2019-05-06T10:45:38.777Z,551.25
2019-05-06T10:46:38.815Z,562.50
2019-05-06T10:47:38.850Z,579.38
2019-05-06T10:48:38.891Z,573.75
2019-05-06T10:49:38.920Z,556.88
2019-05-06T10:50:38.955Z,540.00
2019-05-06T10:51:38.989Z,540.00
2019-05-06T10:52:39.024Z,545.63
2019-05-06T10:53:39.059Z,585.00
2019-05-06T10:54:39.097Z,748.13
2019-05-06T10:55:39.130Z,1569.38
2019-05-06T10:56:50.740Z,2424.38
2019-05-06T10:57:40.446Z,2593.13
2019-05-06T10:58:39.234Z,2238.75
2019-05-06T10:59:39.274Z,2497.50
2019-05-06T11:00:39.311Z,1113.75
2019-05-06T11:01:39.344Z,939.38
2019-05-06T11:02:39.380Z,916.88
2019-05-06T11:03:39.417Z,871.88
2019-05-06T11:04:39.453Z,826.88
2019-05-06T11:05:39.494Z,787.50
2019-05-06T11:06:39.528Z,759.38
2019-05-06T11:07:39.567Z,714.38
2019-05-06T11:08:41.912Z,680.63
2019-05-06T11:09:39.643Z,652.50
2019-05-06T11:10:41.378Z,624.38
2019-05-06T11:11:39.719Z,596.25
2019-05-06T11:12:39.753Z,568.13
2019-05-06T11:13:39.791Z,556.88
2019-05-06T11:14:39.826Z,545.63
2019-05-06T11:15:39.866Z,540.00
2019-05-06T11:16:39.898Z,534.38
2019-05-06T11:17:39.936Z,528.75
2019-05-06T11:18:42.393Z,528.75
2019-05-06T11:19:40.008Z,545.63
2019-05-06T11:20:40.044Z,568.13
2019-05-06T11:21:42.178Z,596.25
2019-05-06T11:22:40.119Z,652.50
2019-05-06T11:23:41.855Z,725.63
2019-05-06T11:24:42.174Z,888.75
2019-05-06T11:25:40.225Z,2671.88
2019-05-06T11:26:42.820Z,995.63
2019-05-06T11:27:42.586Z,961.88
2019-05-06T11:28:42.401Z,922.50
2019-05-06T11:29:40.369Z,866.25
2019-05-06T11:30:42.503Z,804.38
2019-05-06T11:31:43.120Z,731.25
2019-05-06T11:32:42.067Z,691.88
2019-05-06T11:33:42.489Z,663.75
2019-05-06T11:34:42.080Z,652.50
2019-05-06T11:35:43.047Z,646.88
2019-05-06T11:36:42.302Z,630.00
2019-05-06T11:37:47.199Z,596.25
2019-05-06T11:38:42.940Z,556.88
2019-05-06T11:39:42.916Z,528.75
2019-05-06T11:40:42.088Z,511.88
2019-05-06T11:41:49.410Z,506.25
2019-05-06T11:42:43.471Z,517.50
2019-05-06T11:43:42.870Z,551.25
2019-05-06T11:44:43.769Z,618.75
2019-05-06T11:45:42.745Z,703.13
2019-05-06T11:46:42.954Z,815.63
2019-05-06T11:47:42.120Z,1760.63
2019-05-06T11:48:43.138Z,1861.88
2019-05-06T11:49:41.080Z,2643.75
2019-05-06T11:50:42.754Z,1136.25
2019-05-06T11:51:43.509Z,1035.00
2019-05-06T11:52:43.335Z,933.75
2019-05-06T11:53:41.247Z,849.38
2019-05-06T11:54:42.238Z,798.75
2019-05-06T11:55:41.300Z,759.38
2019-05-06T11:56:50.884Z,714.38
2019-05-06T11:57:41.664Z,669.38
2019-05-06T11:58:42.823Z,658.13
2019-05-06T11:59:43.398Z,652.50
2019-05-06T12:00:44.439Z,658.13
2019-05-06T12:01:43.437Z,646.88
2019-05-06T12:02:45.125Z,630.00
2019-05-06T12:03:42.703Z,618.75
2019-05-06T12:04:41.993Z,601.88
2019-05-06T12:05:41.899Z,579.38
2019-05-06T12:06:42.365Z,585.00
2019-05-06T12:07:44.871Z,585.00
2019-05-06T12:08:43.217Z,590.63
2019-05-06T12:09:41.808Z,601.88
2019-05-06T12:10:42.437Z,613.13
2019-05-06T12:11:43.140Z,630.00
2019-05-06T12:12:42.547Z,658.13
2019-05-06T12:13:42.526Z,675.00
2019-05-06T12:14:42.906Z,703.13
2019-05-06T12:15:42.021Z,736.88
2019-05-06T12:16:42.059Z,776.25
2019-05-06T12:17:42.328Z,815.63
2019-05-06T12:18:42.350Z,866.25
2019-05-06T12:19:43.182Z,905.63
2019-05-06T12:20:42.675Z,956.25
2019-05-06T12:21:43.115Z,1102.50
2019-05-06T12:22:42.561Z,1119.38
2019-05-06T12:23:44.936Z,1125.00
2019-05-06T12:24:43.017Z,1040.63
2019-05-06T12:25:45.518Z,928.13
2019-05-06T12:26:42.999Z,810.00
2019-05-06T12:27:43.163Z,714.38
2019-05-06T12:28:43.501Z,663.75
2019-05-06T12:29:42.934Z,624.38
2019-05-06T12:30:42.783Z,613.13